METAR Data
IDs: Format: Raw Decoded Include TAF

Data at: 2346 UTC 29 May 2020

METAR for:KFOD (Fort Dodge Rgnl, IA, US)
Text:KFOD 292256Z AUTO 35008G14KT 10SM CLR 22/07 A3015 RMK AO2 SLP233 T02170072
Temperature: 21.7°C ( 71°F)
Dewpoint: 7.2°C ( 45°F) [RH = 39%]
Pressure (altimeter):30.15 inches Hg (1021.1 mb) [Sea level pressure: 1023.3 mb]
Winds:from the N (350 degrees) at 9 MPH (8 knots; 4.1 m/s) gusting to 16 MPH (14 knots; 7.2 m/s)
Visibility:10 or more sm (16+ km)
Ceiling:at least 12,000 feet AGL
Clouds:sky clear below 12,000 feet AGL
QC Flag:automated observation with no human augmentation